Time;durP1;ratioP1;P1;durP2;ratioP2;P2;SDS_P1;SDS_P2;PMS_P1;PMS_P2;Temp;Humidity;BMP_temperature;BMP_pressure;BME280_temperature;BME280_humidity;BME280_pressure;Samples;Min_cycle;Max_cycle;Signal;HPM_P1;HPM_P2
2021/12/28 00:00:27;;;;;;;;;1.50;1.50;;;;;10.56;100.00;98461.94;5058740;28;45347;-70
2021/12/28 00:02:55;;;;;;;;;2.75;1.00;;;;;10.52;100.00;98446.41;5059272;28;45419;-71
2021/12/28 00:05:23;;;;;;;;;1.75;1.25;;;;;10.52;100.00;98438.50;5043830;28;48433;-68
2021/12/28 00:07:49;;;;;;;;;2.00;1.00;;;;;10.48;100.00;98426.56;5060907;28;45403;-67
2021/12/28 00:10:16;;;;;;;;;1.00;1.00;;;;;10.51;100.00;98434.22;5060212;28;45513;-67
2021/12/28 00:12:42;;;;;;;;;1.75;1.50;;;;;10.53;100.00;98426.19;5058698;28;45400;-67
2021/12/28 00:17:59;;;;;;;;;3.00;1.00;;;;;10.51;100.00;98414.97;5057882;28;45453;-65
2021/12/28 00:20:24;;;;;;;;;2.50;0.50;;;;;10.40;100.00;98392.13;5040963;28;45510;-72
2021/12/28 00:22:50;;;;;;;;;1.50;0.75;;;;;10.47;100.00;98403.00;5058326;28;45613;-72
2021/12/28 00:25:15;;;;;;;;;5.00;3.00;;;;;10.44;100.00;98397.97;5063708;28;46128;-69
2021/12/28 00:27:41;;;;;;;;;5.00;2.50;;;;;10.45;100.00;98399.66;5065518;28;45386;-65
2021/12/28 00:30:07;;;;;;;;;2.25;2.00;;;;;10.46;100.00;98401.31;5066550;28;45369;-70
2021/12/28 00:32:33;;;;;;;;;4.00;2.00;;;;;10.44;100.00;98406.72;5065573;28;45591;-69
2021/12/28 00:34:58;;;;;;;;;1.00;1.00;;;;;10.44;100.00;98400.59;5063776;28;45458;-65
2021/12/28 00:37:24;;;;;;;;;2.75;1.00;;;;;10.40;100.00;98393.91;5064165;28;45402;-65
2021/12/28 00:39:49;;;;;;;;;2.50;1.75;;;;;10.43;100.00;98393.66;5064068;28;44714;-65
2021/12/28 00:42:14;;;;;;;;;2.25;1.50;;;;;10.42;100.00;98392.00;5064469;28;45320;-66
2021/12/28 00:44:40;;;;;;;;;3.50;2.00;;;;;10.41;100.00;98390.31;5064449;28;45879;-65
2021/12/28 00:47:06;;;;;;;;;3.25;3.25;;;;;10.41;100.00;98383.28;5064615;28;45341;-68
2021/12/28 00:49:31;;;;;;;;;3.25;3.00;;;;;10.42;100.00;98384.09;5062642;28;45206;-68
2021/12/28 00:51:57;;;;;;;;;4.50;3.75;;;;;10.45;100.00;98389.13;5063976;28;45525;-69
2021/12/28 00:54:22;;;;;;;;;5.75;5.00;;;;;10.43;100.00;98386.63;5063513;28;46225;-64
2021/12/28 00:56:47;;;;;;;;;5.50;2.00;;;;;10.46;100.00;98393.44;5063555;28;45189;-68
2021/12/28 00:59:13;;;;;;;;;2.75;2.75;;;;;10.45;100.00;98397.00;5063761;28;45293;-70
2021/12/28 01:01:38;;;;;;;;;2.25;1.00;;;;;10.46;100.00;98401.31;5064874;28;45223;-71
2021/12/28 01:04:04;;;;;;;;;2.50;2.00;;;;;10.48;100.00;98395.00;5063712;28;45560;-70
2021/12/28 01:06:29;;;;;;;;;3.50;2.00;;;;;10.49;100.00;98399.31;5063706;28;45530;-69
2021/12/28 01:08:54;;;;;;;;;3.00;2.00;;;;;10.49;100.00;98396.69;5064635;28;45296;-71
2021/12/28 01:11:20;;;;;;;;;1.50;1.50;;;;;10.48;100.00;98397.63;5065614;28;45295;-72
2021/12/28 01:13:46;;;;;;;;;3.00;2.50;;;;;10.51;100.00;98407.06;5067340;28;45359;-73
2021/12/28 01:16:13;;;;;;;;;2.25;2.00;;;;;10.52;100.00;98403.50;5065201;28;45415;-71
2021/12/28 01:18:40;;;;;;;;;2.50;2.50;;;;;10.48;100.00;98402.91;5064952;28;45373;-69
2021/12/28 01:21:05;;;;;;;;;2.00;2.00;;;;;10.55;100.00;98407.69;5064428;28;45579;-70
2021/12/28 01:23:31;;;;;;;;;4.00;3.25;;;;;10.49;100.00;98396.69;5064829;28;45390;-70
2021/12/28 01:25:56;;;;;;;;;3.00;1.25;;;;;10.57;100.00;98408.41;5063170;28;45359;-71
2021/12/28 01:28:21;;;;;;;;;2.75;2.00;;;;;10.54;100.00;98414.72;5063951;28;45317;-69
2021/12/28 01:30:47;;;;;;;;;3.00;1.50;;;;;10.57;100.00;98411.03;5063895;28;45605;-70
2021/12/28 01:33:12;;;;;;;;;2.25;0.50;;;;;10.58;100.00;98410.91;5064929;28;46037;-69
2021/12/28 01:35:38;;;;;;;;;0.50;0.50;;;;;10.61;100.00;98405.44;5061870;28;45297;-68
2021/12/28 01:38:04;;;;;;;;;1.00;1.00;;;;;10.62;100.00;98401.88;5059858;28;45398;-67
2021/12/28 01:40:33;;;;;;;;;0.00;0.00;;;;;10.59;100.00;98401.25;5059872;28;45288;-67
2021/12/28 01:43:07;;;;;;;;;0.00;0.00;;;;;10.57;100.00;98417.13;5059487;28;45330;-71
2021/12/28 01:45:40;;;;;;;;;0.25;0.00;;;;;10.33;100.00;98383.00;5059912;28;45387;-71
2021/12/28 01:48:08;;;;;;;;;55.75;46.00;;;;;10.48;100.00;98410.78;5060146;28;45342;-68
2021/12/28 01:50:34;;;;;;;;;0.00;0.00;;;;;10.46;100.00;98415.31;5060422;28;45667;-70
2021/12/28 01:53:00;;;;;;;;;0.00;0.00;;;;;10.45;100.00;98420.66;5059269;28;45346;-70
2021/12/28 01:55:26;;;;;;;;;0.00;0.00;;;;;10.44;100.00;98427.72;5060145;28;45433;-71
2021/12/28 01:57:51;;;;;;;;;0.50;0.25;;;;;10.48;100.00;98442.31;5060841;28;45320;-72
2021/12/28 02:00:18;;;;;;;;;0.25;0.00;;;;;10.57;100.00;98451.31;5060954;28;45328;-69
2021/12/28 02:02:43;;;;;;;;;0.00;0.00;;;;;10.64;100.00;98446.44;5063002;28;46102;-73
2021/12/28 02:05:09;;;;;;;;;1.25;0.00;;;;;10.68;100.00;98455.78;5060874;28;45494;-70
2021/12/28 02:07:34;;;;;;;;;0.00;0.00;;;;;10.78;100.00;98464.63;5061385;28;45445;-70
2021/12/28 02:10:00;;;;;;;;;0.00;0.00;;;;;10.86;100.00;98474.59;5060524;28;45338;-70
2021/12/28 02:12:29;;;;;;;;;0.00;0.00;;;;;10.94;100.00;98476.63;5060521;28;46231;-73
2021/12/28 02:14:54;;;;;;;;;0.00;0.00;;;;;11.00;99.33;98483.25;5060154;28;45389;-70
2021/12/28 02:17:19;;;;;;;;;1.00;0.00;;;;;11.05;99.32;98489.81;5060337;28;45450;-68
2021/12/28 02:19:45;;;;;;;;;0.00;0.00;;;;;11.09;98.52;98496.53;5060336;28;45643;-72
2021/12/28 02:22:10;;;;;;;;;0.00;0.00;;;;;11.15;97.74;98494.41;5060649;28;45504;-72
2021/12/28 02:24:35;;;;;;;;;0.25;0.00;;;;;11.14;97.39;98496.19;5062449;28;45240;-70
2021/12/28 02:27:01;;;;;;;;;0.75;0.00;;;;;11.22;96.60;98501.69;5044858;28;45313;-67
2021/12/28 02:29:26;;;;;;;;;0.00;0.00;;;;;11.24;96.04;98520.03;5061547;28;45403;-67
2021/12/28 02:31:55;;;;;;;;;0.00;0.00;;;;;11.23;95.91;98513.91;5060114;28;45394;-67
2021/12/28 02:34:24;;;;;;;;;0.00;0.00;;;;;11.20;95.58;98524.66;5059235;28;45371;-70
2021/12/28 02:36:49;;;;;;;;;0.00;0.00;;;;;11.22;95.66;98528.00;5059320;28;45444;-69
2021/12/28 02:39:15;;;;;;;;;0.00;0.00;;;;;11.16;95.38;98533.75;5042550;28;45293;-69
2021/12/28 02:41:41;;;;;;;;;0.00;0.00;;;;;11.05;95.53;98541.59;5059507;28;46092;-68
2021/12/28 02:44:07;;;;;;;;;0.75;0.00;;;;;11.04;95.89;98553.09;5059552;28;45239;-71
2021/12/28 02:46:32;;;;;;;;;0.50;0.00;;;;;11.00;95.71;98562.16;5059991;28;45789;-70
2021/12/28 02:48:57;;;;;;;;;1.00;0.00;;;;;10.91;95.77;98559.25;5062796;28;45334;-67
2021/12/28 02:51:23;;;;;;;;;0.00;0.00;;;;;10.95;96.51;98559.84;5059342;28;46159;-70
2021/12/28 02:53:48;;;;;;;;;0.00;0.00;;;;;11.00;96.12;98567.41;5059335;28;45407;-66
2021/12/28 02:56:18;;;;;;;;;0.00;0.00;;;;;11.02;96.21;98589.19;5060499;28;45284;-69
2021/12/28 02:58:50;;;;;;;;;0.75;0.00;;;;;11.03;95.70;98585.59;5058527;28;45450;-65
2021/12/28 03:01:22;;;;;;;;;0.50;0.00;;;;;11.04;95.54;98598.63;5058749;28;45422;-65
2021/12/28 03:03:52;;;;;;;;;0.00;0.00;;;;;10.97;96.01;98586.88;5059415;28;45352;-67
2021/12/28 03:06:19;;;;;;;;;0.00;0.00;;;;;10.98;95.96;98609.59;5059897;28;45486;-69
2021/12/28 03:08:49;;;;;;;;;0.50;0.00;;;;;10.97;96.27;98600.03;5059817;28;45213;-64
2021/12/28 03:11:15;;;;;;;;;0.00;0.00;;;;;10.99;96.11;98600.78;5039552;28;46143;-65
2021/12/28 03:13:43;;;;;;;;;0.75;0.00;;;;;11.05;95.78;98617.91;5058056;28;45284;-70
2021/12/28 03:16:09;;;;;;;;;0.00;0.00;;;;;11.07;95.68;98618.63;5040153;28;45493;-71
2021/12/28 03:18:35;;;;;;;;;1.00;0.00;;;;;11.09;95.73;98616.72;5058650;28;44921;-64
2021/12/28 03:21:03;;;;;;;;;0.00;0.00;;;;;10.91;95.25;98579.44;5058386;28;45241;-66
2021/12/28 03:23:28;;;;;;;;;0.00;0.00;;;;;11.10;94.70;98610.50;5058213;28;45357;-64
2021/12/28 03:25:54;;;;;;;;;0.75;0.75;;;;;11.11;94.76;98614.81;5058233;28;45235;-65
2021/12/28 03:28:27;;;;;;;;;0.50;0.00;;;;;11.10;94.98;98613.97;5059132;28;45529;-66
2021/12/28 03:30:54;;;;;;;;;0.00;0.00;;;;;11.09;94.91;98612.28;5059178;28;45332;-71
2021/12/28 03:33:22;;;;;;;;;0.50;0.00;;;;;11.09;95.01;98617.53;5057474;28;45442;-69
2021/12/28 03:35:48;;;;;;;;;2.25;1.00;;;;;11.09;94.32;98627.25;5062966;28;45377;-71
2021/12/28 03:38:13;;;;;;;;;1.25;0.00;;;;;11.14;94.73;98627.75;5058943;28;45299;-70
2021/12/28 03:40:39;;;;;;;;;0.75;0.00;;;;;11.17;94.61;98618.81;5057631;28;45379;-71
2021/12/28 03:43:04;;;;;;;;;0.75;0.00;;;;;11.17;94.78;98627.53;5058102;28;45361;-70
2021/12/28 03:45:31;;;;;;;;;0.00;0.00;;;;;11.22;94.42;98628.03;5058121;28;45343;-69
2021/12/28 03:47:56;;;;;;;;;0.25;0.25;;;;;11.24;94.68;98636.63;5058148;28;45752;-71
2021/12/28 03:50:25;;;;;;;;;2.75;0.75;;;;;11.28;94.66;98629.38;5057874;28;45282;-70
2021/12/28 03:52:55;;;;;;;;;2.00;0.00;;;;;11.31;94.08;98641.44;5056707;28;45347;-67
2021/12/28 03:55:25;;;;;;;;;1.00;0.00;;;;;11.32;94.19;98643.97;5060011;28;45411;-72
2021/12/28 03:57:51;;;;;;;;;1.00;0.00;;;;;11.31;94.36;98647.56;5059592;28;45575;-70
2021/12/28 04:00:20;;;;;;;;;0.00;0.00;;;;;11.33;94.04;98642.16;5055151;28;48967;-71
2021/12/28 04:02:45;;;;;;;;;2.00;0.00;;;;;11.35;93.48;98640.25;5060917;28;45246;-69
2021/12/28 04:05:12;;;;;;;;;0.75;0.00;;;;;11.34;93.01;98647.34;5058430;28;45654;-69
2021/12/28 04:07:38;;;;;;;;;0.00;0.00;;;;;11.35;93.42;98649.00;5058007;28;45597;-67
2021/12/28 04:10:07;;;;;;;;;1.00;0.00;;;;;11.37;93.28;98651.50;5057467;28;45218;-71
2021/12/28 04:12:32;;;;;;;;;0.00;0.00;;;;;11.38;93.43;98653.19;5057622;28;45437;-71
2021/12/28 04:14:59;;;;;;;;;1.00;0.00;;;;;11.43;93.08;98651.06;5058443;28;45365;-71
2021/12/28 04:17:26;;;;;;;;;0.75;0.00;;;;;11.43;92.52;98645.78;5060192;28;45518;-69
2021/12/28 04:19:52;;;;;;;;;0.00;0.00;;;;;11.47;92.97;98656.94;5060361;28;45271;-71
2021/12/28 04:22:17;;;;;;;;;1.50;1.00;;;;;11.48;92.96;98659.44;5060779;28;45273;-70
2021/12/28 04:24:43;;;;;;;;;1.00;0.00;;;;;11.51;92.77;98650.50;5060392;28;45284;-67
2021/12/28 04:27:09;;;;;;;;;0.00;0.00;;;;;11.53;92.80;98654.69;5058609;28;45593;-65
2021/12/28 04:29:34;;;;;;;;;1.50;0.00;;;;;11.53;92.95;98653.84;5056508;28;46284;-68
2021/12/28 04:32:00;;;;;;;;;0.00;0.00;;;;;11.50;92.37;98665.44;5056794;28;45356;-69
2021/12/28 04:34:25;;;;;;;;;3.50;0.00;;;;;11.39;92.21;98649.59;5057504;28;45475;-67
2021/12/28 04:36:51;;;;;;;;;1.50;0.00;;;;;11.57;92.50;98683.41;5057803;28;45264;-67
2021/12/28 04:39:17;;;;;;;;;0.00;0.00;;;;;11.58;92.73;98670.16;5060623;28;46151;-67
2021/12/28 04:41:43;;;;;;;;;0.00;0.00;;;;;11.60;92.08;98677.91;5064005;28;45351;-70
2021/12/28 04:44:12;;;;;;;;;1.50;0.75;;;;;11.62;91.73;98681.28;5058980;28;45415;-68
2021/12/28 04:46:37;;;;;;;;;0.50;0.00;;;;;11.64;91.95;98688.13;5056773;28;45418;-68
2021/12/28 04:49:04;;;;;;;;;0.00;0.00;;;;;11.67;91.74;98681.78;5058614;28;46209;-70
2021/12/28 04:51:29;;;;;;;;;0.00;0.00;;;;;11.67;90.89;98674.72;5059048;28;45419;-71
2021/12/28 04:53:55;;;;;;;;;0.00;0.00;;;;;11.66;90.98;98665.13;5060202;28;45348;-71
2021/12/28 04:56:21;;;;;;;;;0.00;0.00;;;;;11.72;90.80;98676.16;5058432;28;45542;-70
2021/12/28 04:58:47;;;;;;;;;0.75;0.00;;;;;11.70;91.29;98668.41;5057205;28;45364;-70
2021/12/28 05:01:12;;;;;;;;;1.00;0.00;;;;;11.69;90.92;98678.06;5039397;28;45978;-72
2021/12/28 05:03:38;;;;;;;;;1.50;0.00;;;;;11.68;90.28;98671.13;5059005;28;45476;-69
2021/12/28 05:06:03;;;;;;;;;1.75;0.00;;;;;11.67;90.25;98682.63;5059036;28;45276;-71
2021/12/28 05:08:29;;;;;;;;;0.75;0.00;;;;;11.67;90.38;98687.88;5057610;28;45679;-70
2021/12/28 05:10:55;;;;;;;;;1.00;0.00;;;;;11.66;89.81;98695.88;5059159;28;45406;-71
2021/12/28 05:13:22;;;;;;;;;3.25;0.00;;;;;11.72;89.76;98697.22;5044245;28;45333;-70
2021/12/28 05:15:48;;;;;;;;;0.00;0.00;;;;;11.74;89.78;98700.59;5042930;28;45222;-72
2021/12/28 05:18:15;;;;;;;;;0.50;0.00;;;;;11.74;89.56;98696.19;5059920;28;46087;-69
2021/12/28 05:20:41;;;;;;;;;0.00;0.00;;;;;11.78;89.71;98717.84;5060631;28;45531;-71
2021/12/28 05:23:08;;;;;;;;;2.50;0.00;;;;;11.77;89.87;98714.38;5060766;28;45257;-71
2021/12/28 05:25:34;;;;;;;;;0.25;0.25;;;;;11.78;89.38;98718.69;5061292;28;45605;-72
2021/12/28 05:28:00;;;;;;;;;1.00;0.00;;;;;11.81;89.06;98723.75;5060621;28;46084;-69
2021/12/28 05:30:26;;;;;;;;;1.00;0.00;;;;;11.84;88.88;98730.56;5060792;28;45244;-67
2021/12/28 05:32:52;;;;;;;;;1.50;0.00;;;;;11.87;88.85;98745.31;5060732;28;45443;-71
2021/12/28 05:35:18;;;;;;;;;1.25;0.00;;;;;11.88;88.45;98741.72;5059938;28;45213;-69
2021/12/28 05:37:43;;;;;;;;;2.25;0.00;;;;;11.88;88.54;98734.63;5060668;28;46500;-72
2021/12/28 05:40:12;;;;;;;;;0.00;0.00;;;;;11.89;88.48;98746.84;5062575;28;45277;-72
2021/12/28 05:42:37;;;;;;;;;2.50;0.75;;;;;11.93;87.91;98744.84;5060173;28;45436;-71
2021/12/28 05:45:04;;;;;;;;;0.00;0.00;;;;;11.93;88.54;98743.03;5060009;28;45441;-70
2021/12/28 05:47:29;;;;;;;;;1.50;0.00;;;;;11.94;87.86;98754.44;5059848;28;45431;-70
2021/12/28 05:49:54;;;;;;;;;1.00;0.00;;;;;11.95;87.83;98737.66;5060495;28;45307;-69
2021/12/28 05:52:20;;;;;;;;;0.00;0.00;;;;;11.96;87.70;98744.59;5061905;28;45268;-71
2021/12/28 05:54:45;;;;;;;;;1.00;0.00;;;;;11.96;87.55;98760.41;5060226;28;45572;-72
2021/12/28 05:57:11;;;;;;;;;5.00;1.00;;;;;11.97;87.00;98770.00;5058116;28;46999;-70
2021/12/28 05:59:37;;;;;;;;;1.00;1.00;;;;;11.95;86.73;98743.75;5062726;28;45394;-73
2021/12/28 06:02:03;;;;;;;;;2.50;0.00;;;;;11.96;86.44;98747.25;5064379;28;45296;-70
2021/12/28 06:04:28;;;;;;;;;0.00;0.00;;;;;11.97;86.30;98757.66;5062578;28;45274;-72
2021/12/28 06:06:54;;;;;;;;;3.50;0.50;;;;;11.97;86.25;98765.56;5060135;28;46248;-73
2021/12/28 06:09:19;;;;;;;;;1.25;1.00;;;;;11.99;86.34;98779.44;5059779;28;45503;-72
2021/12/28 06:11:45;;;;;;;;;0.00;0.00;;;;;12.00;85.53;98775.06;5059663;28;45363;-71
2021/12/28 06:14:10;;;;;;;;;0.75;0.75;;;;;11.99;85.64;98778.63;5060570;28;45356;-70
2021/12/28 06:16:36;;;;;;;;;0.00;0.00;;;;;12.03;85.67;98777.47;5061753;28;45413;-71
2021/12/28 06:19:06;;;;;;;;;1.00;1.00;;;;;12.06;85.38;98784.28;5062007;28;45366;-70
2021/12/28 06:21:32;;;;;;;;;4.50;1.00;;;;;12.05;85.59;98778.19;5059010;28;45313;-72
2021/12/28 06:23:59;;;;;;;;;1.00;0.00;;;;;12.05;85.12;98788.75;5060075;28;45497;-67
2021/12/28 06:26:29;;;;;;;;;5.00;0.00;;;;;12.06;84.95;98800.09;5059670;28;46236;-71
2021/12/28 06:28:56;;;;;;;;;2.00;0.75;;;;;12.06;85.05;98797.47;5059917;28;45269;-65
2021/12/28 06:31:21;;;;;;;;;1.50;0.00;;;;;12.07;84.97;98807.06;5059482;28;45271;-69
2021/12/28 06:33:47;;;;;;;;;3.00;1.00;;;;;12.05;84.24;98807.19;5059406;28;45581;-66
2021/12/28 06:36:12;;;;;;;;;1.50;0.00;;;;;11.93;84.14;98782.56;5059512;28;45204;-71
2021/12/28 06:38:38;;;;;;;;;2.00;1.00;;;;;11.89;84.41;98799.53;5061474;28;45190;-69
2021/12/28 06:41:03;;;;;;;;;1.00;0.50;;;;;11.84;84.28;98820.97;5059461;28;45313;-72
2021/12/28 06:43:29;;;;;;;;;4.50;1.00;;;;;11.68;84.88;98815.97;5059373;28;45220;-72
2021/12/28 06:45:55;;;;;;;;;2.50;2.00;;;;;11.70;84.19;98826.41;5059163;28;46851;-71
2021/12/28 06:48:22;;;;;;;;;3.25;1.00;;;;;11.67;84.44;98832.75;5059111;28;45480;-72
2021/12/28 06:50:48;;;;;;;;;2.00;0.50;;;;;11.60;84.72;98833.28;5058870;28;45390;-73
2021/12/28 06:53:14;;;;;;;;;1.50;1.50;;;;;11.53;84.25;98840.81;5058256;28;45470;-72
2021/12/28 06:55:39;;;;;;;;;1.75;1.25;;;;;11.50;84.38;98851.56;5058800;28;45874;-71
2021/12/28 06:58:05;;;;;;;;;2.00;1.75;;;;;11.47;84.38;98843.88;5058797;28;45342;-69
2021/12/28 07:00:31;;;;;;;;;5.00;2.00;;;;;11.44;84.79;98846.72;5058327;28;45249;-66
2021/12/28 07:02:56;;;;;;;;;1.00;0.75;;;;;11.46;84.11;98844.81;5058970;28;46076;-66
2021/12/28 07:05:22;;;;;;;;;3.50;1.75;;;;;11.48;84.08;98842.94;5058761;28;45987;-65
2021/12/28 07:07:47;;;;;;;;;2.75;0.75;;;;;11.51;84.26;98846.16;5057483;28;45294;-67
2021/12/28 07:10:13;;;;;;;;;3.75;0.00;;;;;11.53;83.83;98852.16;5058831;28;45215;-67
2021/12/28 07:12:38;;;;;;;;;2.00;1.00;;;;;11.57;83.64;98855.44;5058795;28;45363;-67
2021/12/28 07:15:06;;;;;;;;;1.00;0.75;;;;;11.57;83.50;98849.31;5059202;28;45402;-72
2021/12/28 07:17:31;;;;;;;;;1.50;0.75;;;;;11.64;83.41;98853.19;5058568;28;45306;-67
2021/12/28 07:19:57;;;;;;;;;2.25;0.00;;;;;11.70;83.42;98865.94;5058823;28;45308;-73
2021/12/28 07:22:22;;;;;;;;;3.50;1.00;;;;;11.72;83.37;98869.28;5060249;28;45287;-72
2021/12/28 07:24:48;;;;;;;;;4.00;1.00;;;;;11.74;83.15;98870.03;5061607;28;45694;-73
2021/12/28 07:27:14;;;;;;;;;4.50;1.00;;;;;11.74;82.83;98854.22;5066445;28;45376;-73
2021/12/28 07:29:39;;;;;;;;;2.25;1.00;;;;;11.77;82.42;98866.31;5060297;28;45325;-71
2021/12/28 07:32:08;;;;;;;;;2.25;1.00;;;;;11.76;82.60;98876.03;5058980;28;45246;-71
2021/12/28 07:34:34;;;;;;;;;1.75;1.00;;;;;11.80;82.28;98877.47;5057531;28;47011;-72
2021/12/28 07:36:59;;;;;;;;;3.00;2.00;;;;;11.82;82.81;98886.09;5058725;28;45388;-73
2021/12/28 07:39:25;;;;;;;;;3.75;1.00;;;;;11.85;82.52;98887.66;5058240;28;45359;-73
2021/12/28 07:41:50;;;;;;;;;1.75;1.75;;;;;11.86;82.34;98880.63;5058823;28;45278;-72
2021/12/28 07:44:15;;;;;;;;;4.00;2.00;;;;;11.85;82.94;98885.03;5057761;28;46442;-74
2021/12/28 07:46:41;;;;;;;;;3.50;0.00;;;;;11.88;82.28;98900.59;5058097;28;45509;-73
2021/12/28 07:49:06;;;;;;;;;3.75;1.50;;;;;11.90;82.35;98900.53;5058527;28;45387;-71
2021/12/28 07:51:32;;;;;;;;;2.75;1.00;;;;;11.91;82.55;98907.47;5059799;28;45378;-72
2021/12/28 07:53:57;;;;;;;;;4.50;1.00;;;;;11.90;82.48;98905.78;5058741;28;46385;-73
2021/12/28 07:56:23;;;;;;;;;4.00;1.00;;;;;11.89;82.71;98912.00;5059855;28;45502;-71
2021/12/28 07:58:48;;;;;;;;;6.00;1.50;;;;;11.94;82.55;98936.22;5065341;28;44847;-71
2021/12/28 08:01:13;;;;;;;;;2.25;1.50;;;;;11.92;83.15;98923.16;5060799;28;45367;-74
2021/12/28 08:03:39;;;;;;;;;3.50;1.50;;;;;11.94;83.26;98942.31;5059229;28;46045;-73
2021/12/28 08:06:04;;;;;;;;;3.25;1.00;;;;;11.95;83.61;98930.84;5064258;28;45317;-72
2021/12/28 08:08:30;;;;;;;;;4.00;1.00;;;;;11.90;83.55;98930.31;5064620;28;45409;-73
2021/12/28 08:10:55;;;;;;;;;2.00;1.75;;;;;11.94;83.57;98944.13;5059893;28;45217;-73
2021/12/28 08:13:22;;;;;;;;;7.75;2.00;;;;;11.95;83.94;98944.00;5058042;28;46232;-74
2021/12/28 08:15:48;;;;;;;;;5.00;3.25;;;;;11.95;84.63;98949.28;5041251;28;45320;-73
2021/12/28 08:18:13;;;;;;;;;6.25;2.00;;;;;11.93;84.36;98947.72;5059717;28;45221;-73
2021/12/28 08:20:38;;;;;;;;;1.50;1.00;;;;;11.88;84.46;98942.75;5063477;28;45622;-71
2021/12/28 08:23:05;;;;;;;;;2.00;1.00;;;;;11.88;85.13;98955.94;5060586;28;45997;-75
2021/12/28 08:25:30;;;;;;;;;2.00;1.50;;;;;11.83;84.96;98958.06;5039594;28;45425;-72
2021/12/28 08:27:56;;;;;;;;;5.75;1.75;;;;;11.92;85.35;98964.47;5040024;28;45281;-73
2021/12/28 08:30:22;;;;;;;;;3.25;2.00;;;;;11.88;85.98;98968.28;5057709;28;45351;-71
2021/12/28 08:32:48;;;;;;;;;5.25;0.50;;;;;11.90;87.05;98969.03;5057447;28;45335;-73
2021/12/28 08:35:15;;;;;;;;;3.25;1.00;;;;;11.84;88.04;98983.47;5058136;28;45371;-72
2021/12/28 08:37:41;;;;;;;;;2.50;1.25;;;;;11.76;89.42;98994.56;5057692;28;45348;-70
2021/12/28 08:40:09;;;;;;;;;1.75;1.00;;;;;11.69;90.35;99003.84;5055977;28;45396;-72
2021/12/28 08:42:35;;;;;;;;;0.75;0.75;;;;;11.62;91.46;99011.31;5055055;28;46580;-66
2021/12/28 08:45:00;;;;;;;;;6.50;3.00;;;;;11.57;91.80;99026.59;5056182;28;45507;-70
2021/12/28 08:47:27;;;;;;;;;2.50;2.50;;;;;11.52;92.51;99013.72;5058753;28;45786;-72
2021/12/28 08:49:57;;;;;;;;;0.75;0.75;;;;;11.48;92.96;99011.44;5058870;28;45610;-71
2021/12/28 08:52:23;;;;;;;;;2.75;0.75;;;;;11.41;92.82;99005.75;5058814;28;45336;-72
2021/12/28 08:54:49;;;;;;;;;2.50;0.75;;;;;11.38;93.59;99019.09;5059938;28;45366;-71
2021/12/28 08:57:16;;;;;;;;;3.00;2.25;;;;;11.36;93.49;99013.13;5061153;28;45461;-68
2021/12/28 08:59:42;;;;;;;;;1.25;1.25;;;;;11.32;93.20;99017.75;5063519;28;45315;-72
2021/12/28 09:02:09;;;;;;;;;7.00;2.25;;;;;11.34;93.07;99012.38;5063269;28;46301;-67
2021/12/28 09:04:36;;;;;;;;;4.25;1.00;;;;;11.33;93.42;99015.94;5059365;28;45331;-70
2021/12/28 09:07:02;;;;;;;;;1.75;1.75;;;;;11.32;92.46;99016.91;5058907;28;45284;-69
2021/12/28 09:09:28;;;;;;;;;4.00;1.25;;;;;11.35;92.77;99019.31;5040956;28;45657;-69
2021/12/28 09:11:53;;;;;;;;;4.50;2.00;;;;;11.34;92.18;99009.75;5058170;28;46062;-66
2021/12/28 09:14:19;;;;;;;;;2.00;0.50;;;;;11.36;91.41;99018.38;5059835;28;45314;-69
2021/12/28 09:16:44;;;;;;;;;2.25;1.25;;;;;11.37;90.18;99020.91;5059241;28;45313;-69
2021/12/28 09:19:09;;;;;;;;;2.75;2.75;;;;;11.38;89.97;99022.59;5058024;28;45324;-70
2021/12/28 09:21:35;;;;;;;;;0.75;0.50;;;;;11.43;88.21;99030.16;5058498;28;45338;-70
2021/12/28 09:24:00;;;;;;;;;3.75;3.75;;;;;11.40;87.64;99007.53;5058224;28;45465;-72
2021/12/28 09:26:26;;;;;;;;;4.25;3.75;;;;;11.48;86.56;99007.00;5058415;28;45928;-74
2021/12/28 09:28:51;;;;;;;;;2.75;0.00;;;;;11.49;86.53;99013.13;5042435;28;45400;-73
2021/12/28 09:31:17;;;;;;;;;2.50;1.50;;;;;11.54;85.92;99022.38;5057937;28;45455;-71
2021/12/28 09:33:42;;;;;;;;;3.75;1.75;;;;;11.60;85.23;99036.06;5057867;28;45295;-72
2021/12/28 09:36:11;;;;;;;;;6.00;2.00;;;;;11.62;84.39;99032.38;5057229;28;45379;-72
2021/12/28 09:38:36;;;;;;;;;5.00;3.00;;;;;11.65;83.39;99028.69;5058597;28;45623;-74
2021/12/28 09:41:02;;;;;;;;;5.00;3.00;;;;;11.70;82.74;99031.88;5059220;28;46229;-73
2021/12/28 09:43:28;;;;;;;;;5.00;3.75;;;;;11.68;82.58;99031.13;5058708;28;45381;-71
2021/12/28 09:45:53;;;;;;;;;3.50;2.50;;;;;11.74;80.70;99049.13;5058047;28;45878;-72
2021/12/28 09:48:19;;;;;;;;;6.25;3.25;;;;;11.78;79.49;99042.72;5058095;28;45553;-71
2021/12/28 09:50:44;;;;;;;;;6.25;3.00;;;;;11.80;80.73;99047.84;5058125;28;45404;-73
2021/12/28 09:53:13;;;;;;;;;5.50;4.75;;;;;11.86;79.75;99039.50;5058346;28;45353;-72
2021/12/28 09:55:41;;;;;;;;;7.75;4.00;;;;;11.91;79.69;99047.09;5068985;28;45387;-66
2021/12/28 09:58:07;;;;;;;;;6.75;4.25;;;;;11.94;79.62;99052.16;5040402;28;45224;-71
2021/12/28 10:00:33;;;;;;;;;7.75;4.25;;;;;11.97;77.73;99058.03;5057856;28;46398;-73
2021/12/28 10:02:58;;;;;;;;;6.50;4.75;;;;;11.99;77.24;99063.22;5057713;28;45208;-71
2021/12/28 10:05:26;;;;;;;;;7.00;2.75;;;;;12.03;76.31;99061.22;5057925;28;45313;-72
2021/12/28 10:07:56;;;;;;;;;6.75;4.00;;;;;12.05;75.32;99056.69;5057649;28;45577;-72
2021/12/28 10:10:24;;;;;;;;;4.50;3.00;;;;;12.06;75.23;99063.66;5058582;28;46371;-73
2021/12/28 10:12:52;;;;;;;;;7.00;2.75;;;;;12.03;73.11;99056.81;5059146;28;45421;-74
2021/12/28 10:15:21;;;;;;;;;6.00;2.00;;;;;12.10;71.44;99062.47;5057676;28;45351;-73
2021/12/28 10:17:51;;;;;;;;;3.00;3.00;;;;;12.07;72.91;99063.56;5057274;28;45441;-71
2021/12/28 10:20:21;;;;;;;;;12.50;3.00;;;;;12.08;72.83;99056.47;5057082;28;46713;-72
2021/12/28 10:22:52;;;;;;;;;8.75;5.00;;;;;12.08;71.78;99067.88;5056888;28;45435;-72
2021/12/28 10:25:25;;;;;;;;;5.00;2.25;;;;;12.11;71.61;99080.84;5057069;28;45387;-73
2021/12/28 10:27:54;;;;;;;;;8.75;4.00;;;;;12.08;71.75;99064.38;5057774;28;45801;-72
2021/12/28 10:30:22;;;;;;;;;6.75;3.25;;;;;12.12;71.92;99086.94;5056771;28;45383;-73
2021/12/28 10:32:51;;;;;;;;;5.50;2.75;;;;;12.12;71.69;99084.28;5056690;28;45403;-73
2021/12/28 10:35:26;;;;;;;;;7.25;3.75;;;;;12.07;71.02;99074.09;5039381;28;45459;-74
2021/12/28 10:37:55;;;;;;;;;3.25;2.00;;;;;12.13;70.50;99073.66;5057377;28;45403;-74
2021/12/28 10:40:37;;;;;;;;;4.75;4.00;;;;;12.16;69.96;99087.56;5057209;28;46170;-72
2021/12/28 10:43:10;;;;;;;;;2.75;2.75;;;;;12.17;70.05;99090.09;5057080;28;45298;-73
2021/12/28 10:45:40;;;;;;;;;6.50;4.00;;;;;12.18;70.33;99089.13;5057287;28;45344;-73
2021/12/28 10:48:07;;;;;;;;;13.25;3.75;;;;;12.20;68.61;99095.16;5057318;28;45126;-74
2021/12/28 10:50:37;;;;;;;;;7.00;4.00;;;;;12.25;70.17;99094.81;5057224;28;45336;-66
2021/12/28 10:53:32;;;;;;;;;8.50;5.00;;;;;12.27;69.38;99077.09;5057445;28;45415;-67
2021/12/28 10:56:00;;;;;;;;;6.00;2.75;;;;;12.29;69.20;99080.47;5057026;28;45520;-72
2021/12/28 10:58:33;;;;;;;;;6.00;5.25;;;;;12.35;69.42;99089.75;5057050;28;45355;-68
2021/12/28 11:01:10;;;;;;;;;12.75;7.00;;;;;12.37;69.62;99109.78;5056391;28;46306;-73
2021/12/28 11:03:37;;;;;;;;;13.75;4.00;;;;;12.38;69.81;99095.63;5057904;28;45368;-73
2021/12/28 11:06:37;;;;;;;;;6.25;4.00;;;;;12.36;69.24;99101.97;5057655;28;45309;-73
2021/12/28 11:09:08;;;;;;;;;8.75;3.00;;;;;12.31;68.52;99102.28;5038625;28;45655;-73
2021/12/28 11:11:35;;;;;;;;;10.50;5.00;;;;;12.22;68.56;99090.63;5056604;28;46268;-71
2021/12/28 11:14:03;;;;;;;;;7.00;6.00;;;;;12.21;69.44;99101.25;5057222;28;45414;-74
2021/12/28 11:16:30;;;;;;;;;10.00;3.50;;;;;12.19;69.73;99116.34;5057769;28;45363;-72
2021/12/28 11:18:58;;;;;;;;;7.00;5.75;;;;;12.13;69.87;99122.88;5057914;28;45298;-74
2021/12/28 11:21:27;;;;;;;;;10.00;3.75;;;;;12.11;69.07;99120.38;5058016;28;45311;-70
2021/12/28 11:23:55;;;;;;;;;13.00;4.25;;;;;12.07;68.68;99128.59;5057703;28;45390;-70
2021/12/28 11:26:25;;;;;;;;;9.50;6.00;;;;;12.08;69.37;99141.66;5056855;28;45287;-70
2021/12/28 11:28:55;;;;;;;;;12.25;5.25;;;;;12.10;68.79;99176.66;5039680;28;45349;-72
2021/12/28 11:31:24;;;;;;;;;8.50;5.00;;;;;12.15;68.99;99139.44;5056677;28;45351;-74